Menoken, North Dakota
Current Conditions -  °F | °C
As of 9:52 PM on Monday 22 Dec 2014 (Local Time) from KBIS Reporting Station
Light Snow Light Snow  
Wind Chill: 19°   Ceiling: 2400
Heat Index: 30°   Visibility: 2mi
Dew Point: 28°   Wind: 16mph
Humidity: 92%   Direction: 340°NNW
Pressure: 29.73"   Gusts: 22mph
Location:  46.82°N, 100.53°W
Report Text: KBIS 230352Z 34014G19KT 2SM -SN BR FEW007 OVC024 M01/M02 A2973 RMK AO2 SLP089 P0002 T10111022
Loading
Personal Weather Stations






























Interactive Weather Map New forecast layout! Learn more

10-Day Weather Forecast

Advertisements
Track Severe Weather on mobile